Time;durP1;ratioP1;P1;durP2;ratioP2;P2;SDS_P1;SDS_P2;PMS_P1;PMS_P2;Temp;Humidity;BMP_temperature;BMP_pressure;BME280_temperature;BME280_humidity;BME280_pressure;Samples;Min_cycle;Max_cycle;Signal;HPM_P1;HPM_P2
2022/06/03 00:02:23;;;;;;;;;4.00;4.00;;;;;;;;5102694;27;61782;-75
2022/06/03 00:05:00;;;;;;;;;3.25;2.00;;;;;;;;5103020;27;61944;-75
2022/06/03 00:07:42;;;;;;;;;4.25;2.50;;;;;;;;5101706;27;61853;-75
2022/06/03 00:10:16;;;;;;;;;1.00;1.00;;;;;;;;5083818;27;62223;-75
2022/06/03 00:13:11;;;;;;;;;2.00;2.00;;;;;;;;5102602;27;61739;-75
2022/06/03 00:15:45;;;;;;;;;0.25;0.25;;;;;;;;5080175;27;61742;-75
2022/06/03 00:18:29;;;;;;;;;2.25;1.25;;;;;;;;5102094;27;61932;-75
2022/06/03 00:21:07;;;;;;;;;1.75;1.75;;;;;;;;5102513;27;61928;-75
2022/06/03 00:23:47;;;;;;;;;5.00;3.50;;;;;;;;5102190;27;61870;-75
2022/06/03 00:26:25;;;;;;;;;2.00;2.00;;;;;;;;5102719;27;61700;-75
2022/06/03 00:29:02;;;;;;;;;4.75;3.00;;;;;;;;5101897;27;62480;-75
2022/06/03 00:31:27;;;;;;;;;1.00;1.00;;;;;;;;5102173;27;61741;-75
2022/06/03 00:33:53;;;;;;;;;1.00;1.00;;;;;;;;5102242;27;61798;-75
2022/06/03 00:36:18;;;;;;;;;1.00;1.00;;;;;;;;5102478;27;61837;-75
2022/06/03 00:38:58;;;;;;;;;2.50;2.00;;;;;;;;5101150;27;61908;-75
2022/06/03 00:41:44;;;;;;;;;1.00;1.00;;;;;;;;5102271;27;61932;-75
2022/06/03 00:44:09;;;;;;;;;2.00;1.25;;;;;;;;5083124;27;61964;-75
2022/06/03 00:46:35;;;;;;;;;1.50;0.75;;;;;;;;5101899;27;61755;-75
2022/06/03 00:49:19;;;;;;;;;3.00;1.75;;;;;;;;5101707;27;61883;-75
2022/06/03 00:51:57;;;;;;;;;1.75;1.75;;;;;;;;5101851;27;61865;-75
2022/06/03 00:54:40;;;;;;;;;0.75;0.75;;;;;;;;5103128;27;61668;-75
2022/06/03 00:57:25;;;;;;;;;1.50;1.00;;;;;;;;5087013;27;62328;-75
2022/06/03 01:00:05;;;;;;;;;2.25;2.00;;;;;;;;5104364;27;61835;-75
2022/06/03 01:02:50;;;;;;;;;2.00;1.00;;;;;;;;5105287;27;61706;-75
2022/06/03 01:05:15;;;;;;;;;1.00;1.00;;;;;;;;5105458;27;61839;-75
2022/06/03 01:07:50;;;;;;;;;2.25;1.25;;;;;;;;5086776;27;61849;-75
2022/06/03 01:10:27;;;;;;;;;1.25;1.25;;;;;;;;5104453;27;61666;-75
2022/06/03 01:13:13;;;;;;;;;4.00;2.00;;;;;;;;5105291;27;61813;-75
2022/06/03 01:15:38;;;;;;;;;1.75;1.75;;;;;;;;5105254;27;61908;-75
2022/06/03 01:18:06;;;;;;;;;2.25;2.25;;;;;;;;5087065;27;62121;-75
2022/06/03 01:20:39;;;;;;;;;1.00;1.00;;;;;;;;5104741;27;61941;-75
2022/06/03 01:23:39;;;;;;;;;2.00;1.00;;;;;;;;5105009;27;61778;-75
2022/06/03 01:26:08;;;;;;;;;1.25;1.25;;;;;;;;5001841;28;61823;-74
2022/06/03 01:28:58;;;;;;;;;2.00;2.00;;;;;;;;5001801;28;61769;-75
2022/06/03 01:31:24;;;;;;;;;1.50;1.50;;;;;;;;5020674;28;62164;-75
2022/06/03 01:34:07;;;;;;;;;3.00;2.00;;;;;;;;5021304;28;62008;-75
2022/06/03 01:36:38;;;;;;;;;1.00;1.00;;;;;;;;5021749;28;61973;-75
2022/06/03 01:39:24;;;;;;;;;0.00;0.00;;;;;;;;5021512;28;61953;-75
2022/06/03 01:42:09;;;;;;;;;1.00;1.00;;;;;;;;5020840;28;61820;-75
2022/06/03 01:44:45;;;;;;;;;1.25;1.25;;;;;;;;5021078;28;61834;-75
2022/06/03 01:47:29;;;;;;;;;1.00;1.00;;;;;;;;5021390;28;61980;-75
2022/06/03 01:49:58;;;;;;;;;3.00;2.00;;;;;;;;5021456;28;61788;-74
2022/06/03 01:52:44;;;;;;;;;1.00;1.00;;;;;;;;5020945;28;63133;-75
2022/06/03 01:55:30;;;;;;;;;1.00;1.00;;;;;;;;5021023;28;62024;-75
2022/06/03 01:57:58;;;;;;;;;2.00;2.00;;;;;;;;5020612;28;61864;-75
2022/06/03 02:00:26;;;;;;;;;2.00;2.00;;;;;;;;5049955;27;61870;-75
2022/06/03 02:03:05;;;;;;;;;4.25;1.50;;;;;;;;5103951;27;61749;-75
2022/06/03 02:05:43;;;;;;;;;2.75;2.00;;;;;;;;5103488;27;61634;-75
2022/06/03 02:08:21;;;;;;;;;1.00;0.75;;;;;;;;5104557;27;61726;-75
2022/06/03 02:10:46;;;;;;;;;2.75;1.75;;;;;;;;5104508;27;61748;-74
2022/06/03 02:13:14;;;;;;;;;1.00;1.00;;;;;;;;5103646;27;61820;-74
2022/06/03 02:15:39;;;;;;;;;1.75;1.00;;;;;;;;5104412;27;61804;-74
2022/06/03 02:18:11;;;;;;;;;1.00;1.00;;;;;;;;5104406;27;61983;-74
2022/06/03 02:20:45;;;;;;;;;2.50;2.00;;;;;;;;5104553;27;61828;-74
2022/06/03 02:23:25;;;;;;;;;1.50;1.50;;;;;;;;5103588;27;61940;-74
2022/06/03 02:25:51;;;;;;;;;3.50;2.25;;;;;;;;5085483;27;61861;-74
2022/06/03 02:28:46;;;;;;;;;2.00;2.00;;;;;;;;5086000;27;61818;-74
2022/06/03 02:31:24;;;;;;;;;1.25;1.25;;;;;;;;5104528;27;61693;-74
2022/06/03 02:34:08;;;;;;;;;1.75;1.00;;;;;;;;5103371;27;61906;-74
2022/06/03 02:36:33;;;;;;;;;3.00;2.00;;;;;;;;5103820;27;61825;-74
2022/06/03 02:39:02;;;;;;;;;1.00;1.00;;;;;;;;5103549;27;61983;-75
2022/06/03 02:41:38;;;;;;;;;2.00;2.00;;;;;;;;5085804;27;61774;-74
2022/06/03 02:44:22;;;;;;;;;1.75;1.00;;;;;;;;5103076;27;62912;-74
2022/06/03 02:47:06;;;;;;;;;2.00;2.00;;;;;;;;5104044;27;61864;-74
2022/06/03 02:50:00;;;;;;;;;1.00;1.00;;;;;;;;5103983;27;61791;-74
2022/06/03 02:52:41;;;;;;;;;3.00;1.50;;;;;;;;5085659;27;62083;-74
2022/06/03 02:55:12;;;;;;;;;1.00;1.00;;;;;;;;5102556;27;62867;-74
2022/06/03 02:57:38;;;;;;;;;0.25;0.25;;;;;;;;5103463;27;61992;-74
2022/06/03 03:00:17;;;;;;;;;1.25;1.25;;;;;;;;5103591;27;61836;-74
2022/06/03 03:02:54;;;;;;;;;1.00;1.00;;;;;;;;5103904;27;61783;-74
2022/06/03 03:05:29;;;;;;;;;1.00;1.00;;;;;;;;5103015;27;62990;-74
2022/06/03 03:08:08;;;;;;;;;1.50;1.50;;;;;;;;5103189;27;61897;-74
2022/06/03 03:10:50;;;;;;;;;1.00;1.00;;;;;;;;5103080;27;62032;-74
2022/06/03 03:13:27;;;;;;;;;2.00;1.50;;;;;;;;5103436;27;62160;-74
2022/06/03 03:16:01;;;;;;;;;3.50;2.25;;;;;;;;5103049;27;61770;-74
2022/06/03 03:18:45;;;;;;;;;3.50;2.00;;;;;;;;5103006;27;61918;-74
2022/06/03 03:21:29;;;;;;;;;3.75;3.00;;;;;;;;5103288;27;61835;-74
2022/06/03 03:24:12;;;;;;;;;3.00;3.00;;;;;;;;5103185;27;61753;-74
2022/06/03 03:26:41;;;;;;;;;3.50;1.50;;;;;;;;5084323;27;64934;-74
2022/06/03 03:29:09;;;;;;;;;2.50;2.50;;;;;;;;5103015;27;61864;-74
2022/06/03 03:31:52;;;;;;;;;1.00;1.00;;;;;;;;5103257;27;61887;-74
2022/06/03 03:34:21;;;;;;;;;1.50;1.00;;;;;;;;5103246;27;61828;-74
2022/06/03 03:36:52;;;;;;;;;2.00;2.00;;;;;;;;5102489;27;62752;-74
2022/06/03 03:39:36;;;;;;;;;1.25;1.25;;;;;;;;5102282;27;61797;-74
2022/06/03 03:42:10;;;;;;;;;1.75;1.75;;;;;;;;5084579;27;61804;-74
2022/06/03 03:44:54;;;;;;;;;1.25;1.25;;;;;;;;5102970;27;61879;-74
2022/06/03 03:47:38;;;;;;;;;3.00;2.25;;;;;;;;5102208;27;61929;-74
2022/06/03 03:50:21;;;;;;;;;1.50;1.50;;;;;;;;5102623;27;61760;-74
2022/06/03 03:53:03;;;;;;;;;1.25;1.25;;;;;;;;5102747;27;61990;-74
2022/06/03 03:55:47;;;;;;;;;2.00;2.00;;;;;;;;5102988;27;61671;-74
2022/06/03 03:58:31;;;;;;;;;2.00;2.00;;;;;;;;5097534;27;62962;-74
2022/06/03 04:00:59;;;;;;;;;1.00;1.00;;;;;;;;5102591;27;61841;-74
2022/06/03 04:03:43;;;;;;;;;2.50;1.00;;;;;;;;5102688;27;61623;-74
2022/06/03 04:06:27;;;;;;;;;2.25;2.25;;;;;;;;5103135;27;61745;-74
2022/06/03 04:09:11;;;;;;;;;3.00;2.00;;;;;;;;5083321;27;63667;-74
2022/06/03 04:11:36;;;;;;;;;2.00;2.00;;;;;;;;5102762;27;62091;-74
2022/06/03 04:14:20;;;;;;;;;1.50;1.00;;;;;;;;5102911;27;61856;-74
2022/06/03 04:17:04;;;;;;;;;2.25;1.00;;;;;;;;5102742;27;61910;-74
2022/06/03 04:19:35;;;;;;;;;4.00;4.00;;;;;;;;5083617;27;64026;-74
2022/06/03 04:22:07;;;;;;;;;2.00;2.00;;;;;;;;5102325;27;61786;-74
2022/06/03 04:24:51;;;;;;;;;2.50;2.25;;;;;;;;5102186;27;62218;-74
2022/06/03 04:27:35;;;;;;;;;2.00;2.00;;;;;;;;5102567;27;62133;-74
2022/06/03 04:30:16;;;;;;;;;3.00;2.00;;;;;;;;5104286;27;62867;-74
2022/06/03 04:33:00;;;;;;;;;4.00;4.00;;;;;;;;5087640;27;62118;-74
2022/06/03 04:35:45;;;;;;;;;5.25;5.25;;;;;;;;5105662;27;61805;-74
2022/06/03 04:38:32;;;;;;;;;6.00;4.50;;;;;;;;5105032;27;62271;-74
2022/06/03 04:41:16;;;;;;;;;6.00;4.00;;;;;;;;5105252;27;62177;-74
2022/06/03 04:44:20;;;;;;;;;11.50;6.00;;;;;;;;5105831;27;62051;-74
2022/06/03 04:47:05;;;;;;;;;4.25;4.25;;;;;;;;5105442;27;62161;-74
2022/06/03 04:49:33;;;;;;;;;7.00;4.50;;;;;;;;5105932;27;61693;-74
2022/06/03 04:52:19;;;;;;;;;5.00;4.00;;;;;;;;5105077;27;63182;-74
2022/06/03 04:54:44;;;;;;;;;4.00;4.00;;;;;;;;5105835;27;61837;-74
2022/06/03 04:57:24;;;;;;;;;4.50;4.00;;;;;;;;5105420;27;61767;-74
2022/06/03 05:00:05;;;;;;;;;3.50;3.50;;;;;;;;5105929;27;61815;-74
2022/06/03 05:02:50;;;;;;;;;3.75;3.00;;;;;;;;5104742;27;62607;-74
2022/06/03 05:05:38;;;;;;;;;4.00;4.00;;;;;;;;5104216;27;61782;-75
2022/06/03 05:08:22;;;;;;;;;3.50;2.00;;;;;;;;4998352;28;61832;-74
2022/06/03 05:10:47;;;;;;;;;4.50;3.00;;;;;;;;4977088;28;61929;-74
2022/06/03 05:13:31;;;;;;;;;4.00;4.00;;;;;;;;4984951;28;63423;-74
2022/06/03 05:16:15;;;;;;;;;2.75;2.75;;;;;;;;5001768;28;62213;-75
2022/06/03 05:18:52;;;;;;;;;2.00;2.00;;;;;;;;5001923;28;61970;-75
2022/06/03 05:21:23;;;;;;;;;4.00;3.50;;;;;;;;5002049;28;61927;-75
2022/06/03 05:24:03;;;;;;;;;4.50;3.00;;;;;;;;4983446;28;62368;-75
2022/06/03 05:26:37;;;;;;;;;2.50;2.50;;;;;;;;4970347;28;62127;-74
2022/06/03 05:29:08;;;;;;;;;2.75;2.75;;;;;;;;4976880;28;62108;-74
2022/06/03 05:31:36;;;;;;;;;6.50;2.50;;;;;;;;4978796;28;62036;-73
2022/06/03 05:34:20;;;;;;;;;2.00;2.00;;;;;;;;4962122;28;61937;-72
2022/06/03 05:37:18;;;;;;;;;1.50;1.50;;;;;;;;4995212;28;62009;-72
2022/06/03 05:39:46;;;;;;;;;3.25;2.00;;;;;;;;4968869;28;62035;-73
2022/06/03 05:42:24;;;;;;;;;3.25;2.25;;;;;;;;4989715;28;62161;-73
2022/06/03 05:44:54;;;;;;;;;3.50;3.00;;;;;;;;4996950;28;63859;-72
2022/06/03 05:47:24;;;;;;;;;2.25;2.25;;;;;;;;5084234;28;61813;-73
2022/06/03 05:49:52;;;;;;;;;4.75;4.75;;;;;;;;5083722;28;61884;-72
2022/06/03 05:52:36;;;;;;;;;3.00;3.00;;;;;;;;5093185;27;61742;-73
2022/06/03 05:55:20;;;;;;;;;3.00;2.00;;;;;;;;5074913;27;64054;-73
2022/06/03 05:57:51;;;;;;;;;3.25;2.00;;;;;;;;5089798;27;61900;-73
2022/06/03 06:00:20;;;;;;;;;4.75;2.75;;;;;;;;5078361;27;61913;-72
2022/06/03 06:02:52;;;;;;;;;4.75;2.00;;;;;;;;5101413;27;62335;-72
2022/06/03 06:05:27;;;;;;;;;4.25;3.00;;;;;;;;5099994;27;62550;-72
2022/06/03 06:08:01;;;;;;;;;2.50;2.50;;;;;;;;5104054;27;62223;-72
2022/06/03 06:10:42;;;;;;;;;2.25;1.25;;;;;;;;5103970;27;61673;-72
2022/06/03 06:13:07;;;;;;;;;1.50;1.50;;;;;;;;5104407;27;62152;-72
2022/06/03 06:15:37;;;;;;;;;3.00;2.00;;;;;;;;5103076;27;61865;-72
2022/06/03 06:18:15;;;;;;;;;2.00;2.00;;;;;;;;5094032;27;61765;-75
2022/06/03 06:21:03;;;;;;;;;6.25;2.75;;;;;;;;5104120;27;61785;-72
2022/06/03 06:23:42;;;;;;;;;3.25;2.00;;;;;;;;5090504;27;61949;-72
2022/06/03 06:26:07;;;;;;;;;2.25;2.25;;;;;;;;5094171;27;61764;-73
2022/06/03 06:28:36;;;;;;;;;2.00;2.00;;;;;;;;5083217;28;61808;-73
2022/06/03 06:31:07;;;;;;;;;2.00;2.00;;;;;;;;5083766;28;61731;-73
2022/06/03 06:33:32;;;;;;;;;4.50;2.00;;;;;;;;5081630;27;61917;-73
2022/06/03 06:36:17;;;;;;;;;2.50;2.50;;;;;;;;5092984;27;61945;-76
2022/06/03 06:38:45;;;;;;;;;4.50;3.00;;;;;;;;5073541;27;62134;-76
2022/06/03 06:41:21;;;;;;;;;3.00;3.00;;;;;;;;5094044;27;62021;-77
2022/06/03 06:44:01;;;;;;;;;3.25;2.50;;;;;;;;5090894;27;61687;-76
2022/06/03 06:46:33;;;;;;;;;4.25;3.00;;;;;;;;5088764;27;62502;-76
2022/06/03 06:48:59;;;;;;;;;2.00;2.00;;;;;;;;5092877;27;61818;-74
2022/06/03 06:51:42;;;;;;;;;3.50;3.00;;;;;;;;5092384;27;61892;-75
2022/06/03 06:54:12;;;;;;;;;6.50;4.00;;;;;;;;5092376;27;62014;-76
2022/06/03 06:56:53;;;;;;;;;2.25;2.25;;;;;;;;5090746;27;62870;-77
2022/06/03 06:59:39;;;;;;;;;4.00;4.00;;;;;;;;5091937;27;62132;-77
2022/06/03 07:02:15;;;;;;;;;6.50;5.00;;;;;;;;5092184;27;61799;-77
2022/06/03 07:04:44;;;;;;;;;2.25;2.25;;;;;;;;5093149;27;62022;-77
2022/06/03 07:07:13;;;;;;;;;3.00;3.00;;;;;;;;5090688;27;61902;-77
2022/06/03 07:09:54;;;;;;;;;4.50;3.25;;;;;;;;5094734;27;62050;-77
2022/06/03 07:12:28;;;;;;;;;3.50;3.50;;;;;;;;5064681;28;61881;-77
2022/06/03 07:14:59;;;;;;;;;4.00;2.75;;;;;;;;5082820;28;61905;-77
2022/06/03 07:20:31;;;;;;;;;4.25;3.75;;;;;;;;5089710;27;61773;-77
2022/06/03 07:23:02;;;;;;;;;3.00;3.00;;;;;;;;5084696;27;62045;-77
2022/06/03 07:25:32;;;;;;;;;3.25;3.25;;;;;;;;5084758;27;62146;-77
2022/06/03 07:28:01;;;;;;;;;2.50;2.50;;;;;;;;5102123;27;61884;-77
2022/06/03 07:30:50;;;;;;;;;4.50;3.00;;;;;;;;5102780;27;61990;-77
2022/06/03 07:33:17;;;;;;;;;5.50;3.50;;;;;;;;5039154;28;61895;-75
2022/06/03 07:35:45;;;;;;;;;5.00;3.50;;;;;;;;5039261;28;61881;-76
2022/06/03 07:38:19;;;;;;;;;2.50;2.50;;;;;;;;5038507;28;63222;-76
2022/06/03 07:40:47;;;;;;;;;4.00;3.00;;;;;;;;5039235;28;61991;-76
2022/06/03 07:43:18;;;;;;;;;2.75;2.75;;;;;;;;5022848;28;62201;-76
2022/06/03 07:46:09;;;;;;;;;10.25;4.75;;;;;;;;5039290;28;61864;-76
2022/06/03 07:48:36;;;;;;;;;2.00;2.00;;;;;;;;5052316;28;65005;-76
2022/06/03 07:51:04;;;;;;;;;7.00;4.00;;;;;;;;5022426;28;62082;-75
2022/06/03 07:53:32;;;;;;;;;4.00;2.75;;;;;;;;5039569;28;62096;-75
2022/06/03 07:55:59;;;;;;;;;5.00;2.25;;;;;;;;5038518;28;61900;-75
2022/06/03 07:58:25;;;;;;;;;3.75;3.25;;;;;;;;5038718;28;61994;-75
2022/06/03 08:00:50;;;;;;;;;4.75;4.75;;;;;;;;5022069;28;62062;-75
2022/06/03 08:03:21;;;;;;;;;2.75;2.75;;;;;;;;5038830;28;62089;-76
2022/06/03 08:05:50;;;;;;;;;4.25;4.00;;;;;;;;5040055;28;61890;-75
2022/06/03 08:11:07;;;;;;;;;4.75;4.00;;;;;;;;5091285;27;61740;-76
2022/06/03 08:13:41;;;;;;;;;4.00;3.75;;;;;;;;5103306;27;61987;-77
2022/06/03 08:16:34;;;;;;;;;6.25;4.50;;;;;;;;5105983;27;61927;-76
2022/06/03 08:19:01;;;;;;;;;5.00;5.00;;;;;;;;5101620;27;61716;-76
2022/06/03 08:21:41;;;;;;;;;6.00;4.00;;;;;;;;5106348;27;61863;-76
2022/06/03 08:24:09;;;;;;;;;3.00;3.00;;;;;;;;5105973;27;61962;-76
2022/06/03 08:26:34;;;;;;;;;4.75;2.75;;;;;;;;5084090;28;62395;-75
2022/06/03 08:29:29;;;;;;;;;5.50;4.00;;;;;;;;5084539;27;62800;-74
2022/06/03 08:31:56;;;;;;;;;3.50;3.00;;;;;;;;5075650;27;61914;-76
2022/06/03 08:34:31;;;;;;;;;4.25;4.25;;;;;;;;5066787;28;62030;-75
2022/06/03 08:36:56;;;;;;;;;6.00;3.50;;;;;;;;5087867;27;62040;-75
2022/06/03 08:39:26;;;;;;;;;3.00;3.00;;;;;;;;5104628;27;62290;-75
2022/06/03 08:42:12;;;;;;;;;4.75;4.00;;;;;;;;5104898;27;61727;-76
2022/06/03 08:44:46;;;;;;;;;3.00;3.00;;;;;;;;5060976;27;62094;-76
2022/06/03 08:47:18;;;;;;;;;6.50;3.00;;;;;;;;5084528;27;61651;-76
2022/06/03 08:50:01;;;;;;;;;6.75;4.75;;;;;;;;5086391;27;63545;-76
2022/06/03 08:52:38;;;;;;;;;5.75;4.75;;;;;;;;5086847;27;61985;-75
2022/06/03 08:55:05;;;;;;;;;4.00;3.75;;;;;;;;5105329;27;61760;-76
2022/06/03 08:57:36;;;;;;;;;3.75;3.25;;;;;;;;5086618;27;61786;-73
2022/06/03 09:00:25;;;;;;;;;5.00;5.00;;;;;;;;5104086;27;62754;-76
2022/06/03 09:03:00;;;;;;;;;6.75;5.00;;;;;;;;5104158;27;61902;-72
2022/06/03 09:05:29;;;;;;;;;5.75;4.00;;;;;;;;5103924;27;61788;-72
2022/06/03 09:08:16;;;;;;;;;5.00;5.00;;;;;;;;5104262;27;62035;-72
2022/06/03 09:10:46;;;;;;;;;10.25;3.75;;;;;;;;5103889;27;62786;-72
2022/06/03 09:13:44;;;;;;;;;5.25;4.25;;;;;;;;5104612;27;61919;-72
2022/06/03 09:16:11;;;;;;;;;4.50;4.50;;;;;;;;5030414;27;61934;-72
2022/06/03 09:18:41;;;;;;;;;8.50;6.75;;;;;;;;5103938;27;61865;-72
2022/06/03 09:21:09;;;;;;;;;5.75;3.00;;;;;;;;5085849;27;64644;-72
2022/06/03 09:23:39;;;;;;;;;6.50;4.50;;;;;;;;5086670;27;61758;-73
2022/06/03 09:26:08;;;;;;;;;5.50;3.50;;;;;;;;5104596;27;61678;-75
2022/06/03 09:28:35;;;;;;;;;7.75;5.25;;;;;;;;5104868;27;61690;-74
2022/06/03 09:31:03;;;;;;;;;8.75;5.00;;;;;;;;5104108;27;62101;-73
2022/06/03 09:33:29;;;;;;;;;7.25;6.25;;;;;;;;5105006;27;61807;-73
2022/06/03 09:35:57;;;;;;;;;4.67;3.00;;;;;;;;5104947;27;61993;-73
2022/06/03 09:38:24;;;;;;;;;7.25;4.75;;;;;;;;5104390;27;61993;-74
2022/06/03 09:40:51;;;;;;;;;4.25;4.25;;;;;;;;5103147;27;62776;-74
2022/06/03 09:43:19;;;;;;;;;13.00;10.25;;;;;;;;5085473;27;62203;-73
2022/06/03 09:45:46;;;;;;;;;6.33;4.67;;;;;;;;5104733;27;61859;-74
2022/06/03 09:48:15;;;;;;;;;4.25;4.00;;;;;;;;5104830;27;61785;-72
2022/06/03 09:50:44;;;;;;;;;5.25;3.50;;;;;;;;5104044;27;62082;-74
2022/06/03 09:53:10;;;;;;;;;6.33;5.00;;;;;;;;5104541;27;61834;-72
2022/06/03 09:55:37;;;;;;;;;6.25;5.25;;;;;;;;5103559;27;61935;-72
2022/06/03 09:58:04;;;;;;;;;6.00;6.00;;;;;;;;5102725;27;61918;-73
2022/06/03 10:00:36;;;;;;;;;5.00;4.00;;;;;;;;5103399;27;61847;-72
2022/06/03 10:03:02;;;;;;;;;7.00;5.00;;;;;;;;5103854;27;61682;-73
2022/06/03 10:05:28;;;;;;;;;4.67;4.00;;;;;;;;5103967;27;61624;-73
2022/06/03 10:07:59;;;;;;;;;5.67;5.67;;;;;;;;5104456;27;61748;-73
2022/06/03 10:13:08;;;;;;;;;7.00;6.00;;;;;;;;5104458;27;61975;-75
2022/06/03 10:15:44;;;;;;;;;5.67;5.67;;;;;;;;5104339;27;61912;-72
2022/06/03 10:18:12;;;;;;;;;7.33;4.00;;;;;;;;5104278;27;61721;-73
2022/06/03 10:20:37;;;;;;;;;5.00;5.00;;;;;;;;5103628;27;61820;-72
2022/06/03 10:23:03;;;;;;;;;6.00;6.00;;;;;;;;5103737;27;61978;-72
2022/06/03 10:25:29;;;;;;;;;7.67;6.67;;;;;;;;5103477;27;61967;-72
2022/06/03 10:27:54;;;;;;;;;11.00;7.33;;;;;;;;5089779;27;61874;-73
2022/06/03 10:30:30;;;;;;;;;6.67;6.67;;;;;;;;5082910;28;61693;-72
2022/06/03 10:32:56;;;;;;;;;7.00;7.00;;;;;;;;5085904;27;61798;-72
2022/06/03 10:35:26;;;;;;;;;9.33;6.33;;;;;;;;5103745;27;61775;-72
2022/06/03 10:37:56;;;;;;;;;7.67;7.00;;;;;;;;5104067;27;61739;-72
2022/06/03 10:40:24;;;;;;;;;9.00;6.00;;;;;;;;5102586;27;61977;-72
2022/06/03 10:42:51;;;;;;;;;11.00;8.67;;;;;;;;5104033;27;61778;-72
2022/06/03 10:45:16;;;;;;;;;5.67;5.33;;;;;;;;5103348;27;62064;-72
2022/06/03 10:47:46;;;;;;;;;6.67;6.67;;;;;;;;5104194;27;61623;-72
2022/06/03 10:50:29;;;;;;;;;5.33;5.33;;;;;;;;5103004;27;61809;-72
2022/06/03 11:01:24;;;;;;;;;6.33;5.33;;;;;;;;5099390;27;62182;-72
2022/06/03 11:03:51;;;;;;;;;5.67;5.67;;;;;;;;5102954;27;62212;-73
2022/06/03 11:06:18;;;;;;;;;7.67;7.00;;;;;;;;5102977;27;61996;-72
2022/06/03 11:08:47;;;;;;;;;6.33;6.33;;;;;;;;5099703;27;62543;-72
2022/06/03 11:11:12;;;;;;;;;7.67;6.33;;;;;;;;5101370;27;61990;-72
2022/06/03 11:13:40;;;;;;;;;6.00;5.00;;;;;;;;5102436;27;61907;-73
2022/06/03 11:16:18;;;;;;;;;5.67;5.67;;;;;;;;5102260;27;61886;-72
2022/06/03 11:18:44;;;;;;;;;6.67;5.33;;;;;;;;5103138;27;61717;-72
2022/06/03 11:21:26;;;;;;;;;8.33;7.33;;;;;;;;5102342;27;61896;-72
2022/06/03 11:23:58;;;;;;;;;7.00;7.00;;;;;;;;5102364;27;61915;-72
2022/06/03 11:26:38;;;;;;;;;9.00;7.33;;;;;;;;5102036;27;62028;-72
2022/06/03 11:29:11;;;;;;;;;9.00;5.33;;;;;;;;5083930;27;62098;-72
2022/06/03 11:31:39;;;;;;;;;5.33;5.33;;;;;;;;5101657;27;62747;-72
2022/06/03 11:34:08;;;;;;;;;5.00;4.00;;;;;;;;5103211;27;61831;-72
2022/06/03 11:36:59;;;;;;;;;6.00;6.00;;;;;;;;5102724;27;61897;-72
2022/06/03 11:40:00;;;;;;;;;8.00;8.00;;;;;;;;4999143;28;62116;-74
2022/06/03 11:42:38;;;;;;;;;6.00;6.00;;;;;;;;4932498;28;61920;-74
2022/06/03 11:45:12;;;;;;;;;5.67;5.67;;;;;;;;4938051;28;62293;-74
2022/06/03 11:47:49;;;;;;;;;9.67;8.33;;;;;;;;4951132;28;61998;-75
2022/06/03 11:50:16;;;;;;;;;9.50;8.50;;;;;;;;4923333;28;62257;-76
2022/06/03 11:52:41;;;;;;;;;8.00;5.67;;;;;;;;4928167;28;63731;-73
2022/06/03 11:55:06;;;;;;;;;10.00;8.67;;;;;;;;4940185;28;62249;-74
2022/06/03 11:57:31;;;;;;;;;9.33;8.00;;;;;;;;4970389;28;62061;-73
2022/06/03 12:00:03;;;;;;;;;7.67;4.33;;;;;;;;4946670;28;61871;-73
2022/06/03 12:02:39;;;;;;;;;6.00;5.00;;;;;;;;4941147;28;61881;-72
2022/06/03 12:05:09;;;;;;;;;5.00;5.00;;;;;;;;4934900;28;61800;-73
2022/06/03 12:07:41;;;;;;;;;7.00;5.00;;;;;;;;4942948;28;61974;-73
2022/06/03 12:10:16;;;;;;;;;6.00;5.33;;;;;;;;4938404;28;62044;-74
2022/06/03 12:15:30;;;;;;;;;7.25;6.25;;;;;;;;4946550;28;62165;-74
2022/06/03 12:17:57;;;;;;;;;6.00;3.67;;;;;;;;5076283;27;61915;-73
2022/06/03 12:20:31;;;;;;;;;4.75;4.75;;;;;;;;5102292;27;61929;-74
2022/06/03 12:23:16;;;;;;;;;6.33;4.00;;;;;;;;5083488;27;63846;-74
2022/06/03 12:25:46;;;;;;;;;6.75;5.00;;;;;;;;5101277;27;62061;-73
2022/06/03 12:28:26;;;;;;;;;6.25;4.50;;;;;;;;5084153;27;62305;-73
2022/06/03 12:30:56;;;;;;;;;4.50;3.75;;;;;;;;5083995;27;61706;-73
2022/06/03 12:33:28;;;;;;;;;4.00;4.00;;;;;;;;5082931;27;61832;-73
2022/06/03 12:35:56;;;;;;;;;5.00;5.00;;;;;;;;5081408;28;61789;-73
2022/06/03 12:38:22;;;;;;;;;3.00;3.00;;;;;;;;5081384;28;61889;-74
2022/06/03 12:40:53;;;;;;;;;3.00;3.00;;;;;;;;5063444;28;62227;-74
2022/06/03 12:43:28;;;;;;;;;3.33;3.00;;;;;;;;5081310;28;62993;-73
2022/06/03 12:45:58;;;;;;;;;5.33;3.33;;;;;;;;5081446;28;62140;-74
2022/06/03 12:48:47;;;;;;;;;3.00;3.00;;;;;;;;5081421;28;61786;-73
2022/06/03 12:51:21;;;;;;;;;5.00;3.00;;;;;;;;5057335;28;62274;-73
2022/06/03 12:53:47;;;;;;;;;5.00;3.67;;;;;;;;5084420;28;62030;-74
2022/06/03 12:56:33;;;;;;;;;4.75;4.75;;;;;;;;5084614;28;61797;-74
2022/06/03 12:59:03;;;;;;;;;5.33;5.33;;;;;;;;5046427;28;62184;-73
2022/06/03 13:01:34;;;;;;;;;5.00;5.00;;;;;;;;5070848;27;62087;-73
2022/06/03 13:04:18;;;;;;;;;5.67;3.00;;;;;;;;5068219;28;63632;-73
2022/06/03 13:07:02;;;;;;;;;5.00;5.00;;;;;;;;5084570;28;61661;-74
2022/06/03 13:09:46;;;;;;;;;4.00;4.00;;;;;;;;5088515;27;61717;-74
2022/06/03 13:12:41;;;;;;;;;4.00;4.00;;;;;;;;5105265;27;61931;-74
2022/06/03 13:15:21;;;;;;;;;4.33;4.33;;;;;;;;5081797;27;62433;-73
2022/06/03 13:20:48;;;;;;;;;5.00;4.00;;;;;;;;5104830;27;62023;-74
2022/06/03 13:23:20;;;;;;;;;4.33;3.33;;;;;;;;5104994;27;61721;-73
2022/06/03 13:25:46;;;;;;;;;6.00;5.33;;;;;;;;5103966;27;61898;-74
2022/06/03 13:28:18;;;;;;;;;6.33;5.00;;;;;;;;5104897;27;61857;-73
2022/06/03 13:31:01;;;;;;;;;3.00;3.00;;;;;;;;5104535;27;61795;-73
2022/06/03 13:33:26;;;;;;;;;6.33;5.67;;;;;;;;5104298;27;61752;-73
2022/06/03 13:36:04;;;;;;;;;6.00;5.00;;;;;;;;5103460;27;62103;-73
2022/06/03 13:38:43;;;;;;;;;8.50;6.00;;;;;;;;5103994;27;61800;-72
2022/06/03 13:44:24;;;;;;;;;5.00;5.00;;;;;;;;5104527;27;61801;-73
2022/06/03 13:46:59;;;;;;;;;7.00;5.25;;;;;;;;5000549;28;61899;-72
2022/06/03 13:49:25;;;;;;;;;5.50;4.50;;;;;;;;5001244;28;61988;-73
2022/06/03 13:51:54;;;;;;;;;7.75;5.75;;;;;;;;5000937;28;61967;-72
2022/06/03 13:54:20;;;;;;;;;4.00;4.00;;;;;;;;5001215;28;62052;-72
2022/06/03 13:56:57;;;;;;;;;6.50;6.50;;;;;;;;5000247;28;61879;-73
2022/06/03 13:59:33;;;;;;;;;8.75;5.75;;;;;;;;5001453;28;61988;-73
2022/06/03 14:02:02;;;;;;;;;8.00;7.25;;;;;;;;4999607;28;61895;-74
2022/06/03 14:04:29;;;;;;;;;6.25;5.75;;;;;;;;5001360;28;61995;-74
2022/06/03 14:07:03;;;;;;;;;5.00;5.00;;;;;;;;5000381;28;62891;-75
2022/06/03 14:09:34;;;;;;;;;4.25;4.25;;;;;;;;5000029;28;62256;-73
2022/06/03 14:12:05;;;;;;;;;8.50;6.75;;;;;;;;4984238;28;62045;-74
2022/06/03 14:14:40;;;;;;;;;5.75;3.75;;;;;;;;5001095;28;61934;-73
2022/06/03 14:17:31;;;;;;;;;5.50;4.75;;;;;;;;4999497;28;62063;-74
2022/06/03 14:20:11;;;;;;;;;5.75;5.75;;;;;;;;4993748;28;62006;-76
2022/06/03 14:22:36;;;;;;;;;11.25;7.00;;;;;;;;5000303;28;61880;-72
2022/06/03 14:25:10;;;;;;;;;9.25;4.75;;;;;;;;5079298;27;62091;-73
2022/06/03 14:28:02;;;;;;;;;7.25;7.25;;;;;;;;5103537;27;61753;-73
2022/06/03 14:30:48;;;;;;;;;11.00;6.00;;;;;;;;5064877;27;62335;-73
2022/06/03 14:33:15;;;;;;;;;8.75;6.25;;;;;;;;5102976;27;61797;-73
2022/06/03 14:35:44;;;;;;;;;6.00;6.00;;;;;;;;5103978;27;61850;-73
2022/06/03 14:38:29;;;;;;;;;7.00;7.00;;;;;;;;5102788;27;61851;-73
2022/06/03 14:40:55;;;;;;;;;4.25;4.00;;;;;;;;5102030;27;61781;-75
2022/06/03 14:43:23;;;;;;;;;3.33;3.33;;;;;;;;5100264;27;61931;-73
2022/06/03 14:45:51;;;;;;;;;7.00;5.00;;;;;;;;5084897;27;61871;-73
2022/06/03 14:48:20;;;;;;;;;4.67;3.67;;;;;;;;5102849;27;61952;-72
2022/06/03 14:50:50;;;;;;;;;6.00;4.00;;;;;;;;5103509;27;61711;-73
2022/06/03 14:53:26;;;;;;;;;6.33;4.00;;;;;;;;5103292;27;61730;-73
2022/06/03 14:56:11;;;;;;;;;6.00;6.00;;;;;;;;5084366;27;61986;-74
2022/06/03 14:58:43;;;;;;;;;6.00;6.00;;;;;;;;5089929;27;61857;-74
2022/06/03 15:01:27;;;;;;;;;5.00;5.00;;;;;;;;5082809;27;61722;-73
2022/06/03 15:03:56;;;;;;;;;5.67;4.00;;;;;;;;5099524;27;61765;-73
2022/06/03 15:06:36;;;;;;;;;4.33;3.33;;;;;;;;5101318;27;61719;-74
2022/06/03 15:09:24;;;;;;;;;8.00;6.00;;;;;;;;5099285;27;62866;-74
2022/06/03 15:11:51;;;;;;;;;3.67;3.67;;;;;;;;5101045;27;61948;-74
2022/06/03 15:14:19;;;;;;;;;6.00;4.00;;;;;;;;5081916;27;61967;-74
2022/06/03 15:16:51;;;;;;;;;4.00;3.00;;;;;;;;5101546;27;62216;-74
2022/06/03 15:19:32;;;;;;;;;3.33;2.67;;;;;;;;5100164;27;61827;-74
2022/06/03 15:21:57;;;;;;;;;4.00;4.00;;;;;;;;5082898;27;61992;-73
2022/06/03 15:24:23;;;;;;;;;4.33;3.67;;;;;;;;5101238;27;62030;-73
2022/06/03 15:26:48;;;;;;;;;5.00;5.00;;;;;;;;5101876;27;61868;-74
2022/06/03 15:29:19;;;;;;;;;5.33;5.00;;;;;;;;5101099;27;61888;-73
2022/06/03 15:31:47;;;;;;;;;4.33;4.00;;;;;;;;5083295;27;61903;-72
2022/06/03 15:34:12;;;;;;;;;3.00;3.00;;;;;;;;5083739;27;61935;-71
2022/06/03 15:36:43;;;;;;;;;2.00;2.00;;;;;;;;5101998;27;61790;-72
2022/06/03 15:39:15;;;;;;;;;3.00;3.00;;;;;;;;5081003;28;61952;-72
2022/06/03 15:41:44;;;;;;;;;3.50;3.25;;;;;;;;5082125;28;61882;-72
2022/06/03 15:44:10;;;;;;;;;5.33;2.67;;;;;;;;5077492;27;61797;-73
2022/06/03 15:46:39;;;;;;;;;2.00;2.00;;;;;;;;5101049;27;61812;-74
2022/06/03 15:49:14;;;;;;;;;2.00;2.00;;;;;;;;5079769;27;63572;-73
2022/06/03 15:51:45;;;;;;;;;3.00;2.00;;;;;;;;5100893;27;61752;-73
2022/06/03 15:54:28;;;;;;;;;2.00;2.00;;;;;;;;5101064;27;61852;-74